Terminal Aerodrome Forecast
Issued by NWS Jackson, MS

Home | Current Version | Previous Version | Text Only | Print | Product List | Glossary On
Versions: 1 2 3 4 5 6 7 8 9 10 11 12 13 14 15 16 17 18 19 20
000
FTUS44 KJAN 271343 AAB
TAFJAN
TAF AMD
KJAN 271343Z 2714/2812 17007KT 6SM BR SCT010 BKN015
     FM271500 20006KT P6SM BKN025
     FM271800 17006KT P6SM VCTS BKN050CB
     FM272200 VRB03KT P6SM BKN250
     FM281000 15002KT P6SM OVC100=

USA.gov is the U.S. government's official web portal to all federal, state and local government web resources and services.